Time;durP1;ratioP1;P1;durP2;ratioP2;P2;SDS_P1;SDS_P2;PMS_P1;PMS_P2;Temp;Humidity;BMP_temperature;BMP_pressure;BME280_temperature;BME280_humidity;BME280_pressure;Samples;Min_cycle;Max_cycle;Signal;HPM_P1;HPM_P2
2022/03/21 00:00:51;;;;;;;4.10;3.90;;;;;;;6.92;86.30;102495.41;6068236;23;20034;-67
2022/03/21 00:03:20;;;;;;;4.47;4.28;;;;;;;4.82;88.00;102182.28;6074738;23;20030;-66
2022/03/21 00:05:48;;;;;;;4.10;3.90;;;;;;;6.75;90.04;102498.97;6080005;23;20026;-66
2022/03/21 00:08:17;;;;;;;4.20;4.00;;;;;;;6.73;91.68;102505.09;6076358;23;20052;-65
2022/03/21 00:10:45;;;;;;;5.32;4.85;;;;;;;5.61;91.31;102303.31;5995703;23;20103;-66
2022/03/21 00:13:15;;;;;;;5.47;5.05;;;;;;;6.28;90.97;102421.94;6074762;23;20028;-65
2022/03/21 00:15:43;;;;;;;4.57;4.38;;;;;;;5.50;90.00;102300.78;6072300;23;20079;-66
2022/03/21 00:18:13;;;;;;;4.28;4.07;;;;;;;6.12;90.27;102408.13;6085227;23;20029;-66
2022/03/21 00:20:41;;;;;;;4.78;4.57;;;;;;;5.10;92.46;102259.31;6072497;23;20002;-67
2022/03/21 00:23:09;;;;;;;3.58;3.47;;;;;;;6.55;94.68;102503.47;6077237;23;20024;-68
2022/03/21 00:25:36;;;;;;;6.38;6.07;;;;;;;6.43;95.46;102500.94;6055617;23;20022;-67
2022/03/21 00:28:04;;;;;;;4.00;3.80;;;;;;;6.46;95.08;102498.34;6085002;23;20022;-67
2022/03/21 00:30:32;;;;;;;5.35;5.15;;;;;;;6.49;94.54;102493.09;6079648;23;20569;-67
2022/03/21 00:32:58;;;;;;;3.83;3.65;;;;;;;5.98;93.23;102410.81;6085040;23;20507;-67
2022/03/21 00:35:26;;;;;;;4.30;4.10;;;;;;;6.53;92.92;102493.03;6087621;23;20046;-66
2022/03/21 00:37:53;;;;;;;4.10;3.90;;;;;;;6.57;92.71;102479.13;6091462;23;20021;-66
2022/03/21 00:40:20;;;;;;;3.92;3.63;;;;;;;6.51;91.62;102491.34;6083621;23;20065;-67
2022/03/21 00:42:49;;;;;;;3.72;3.63;;;;;;;5.22;91.55;102297.44;6121019;23;20030;-67
2022/03/21 00:45:25;;;;;;;3.90;3.70;;;;;;;6.35;91.31;102475.81;6094347;23;20253;-67
2022/03/21 00:47:54;;;;;;;3.80;3.60;;;;;;;6.35;91.96;102498.38;6126496;23;20153;-67
2022/03/21 00:50:23;;;;;;;4.18;3.97;;;;;;;6.33;93.45;102507.97;6074248;23;20018;-67
2022/03/21 00:52:55;;;;;;;4.18;3.97;;;;;;;6.34;93.99;102501.88;6120937;23;20345;-67
2022/03/21 00:55:28;;;;;;;4.20;4.00;;;;;;;6.31;93.82;102497.53;6090066;23;20085;-67
2022/03/21 00:57:56;;;;;;;4.00;3.80;;;;;;;5.60;92.63;102377.97;6113977;23;20075;-67
2022/03/21 01:00:25;;;;;;;4.55;3.92;;;;;;;6.35;91.93;102490.56;6093269;23;20014;-65
2022/03/21 01:02:53;;;;;;;4.80;4.50;;;;;;;6.27;92.24;102501.03;6102756;23;20017;-65
2022/03/21 01:05:20;;;;;;;3.50;3.40;;;;;;;6.21;92.31;102498.44;6092041;23;20439;-65
2022/03/21 01:07:46;;;;;;;3.95;3.78;;;;;;;6.18;93.17;102501.09;6109372;23;20070;-65
2022/03/21 01:10:15;;;;;;;3.88;3.70;;;;;;;6.17;92.96;102508.06;6082559;23;20026;-65
2022/03/21 01:12:43;;;;;;;3.53;3.42;;;;;;;5.56;92.50;102410.13;6119231;23;20402;-65
2022/03/21 01:15:13;;;;;;;3.63;3.53;;;;;;;6.07;91.79;102510.69;6083361;23;20036;-65
2022/03/21 01:17:42;;;;;;;3.90;3.70;;;;;;;6.01;93.34;102513.31;6092481;23;20088;-65
2022/03/21 01:20:09;;;;;;;4.13;3.92;;;;;;;5.97;94.35;102507.25;6055819;23;20030;-65
2022/03/21 01:22:36;;;;;;;4.00;3.85;;;;;;;5.17;94.34;102377.25;6111989;23;20037;-65
2022/03/21 01:25:03;;;;;;;4.13;3.92;;;;;;;5.98;93.97;102509.84;6057527;23;20025;-65
2022/03/21 01:27:31;;;;;;;5.63;5.40;;;;;;;5.84;92.90;102490.78;6089447;23;20103;-65
2022/03/21 01:29:58;;;;;;;3.25;3.15;;;;;;;4.71;94.64;102299.31;6073105;23;20078;-65
2022/03/21 01:32:25;;;;;;;5.18;4.95;;;;;;;5.70;95.25;102488.22;6088333;23;20029;-65
2022/03/21 01:34:52;;;;;;;4.00;3.80;;;;;;;5.91;95.23;102522.88;6066412;23;20014;-65
2022/03/21 01:37:18;;;;;;;3.60;3.50;;;;;;;5.50;95.54;102444.00;6094246;23;20036;-67
2022/03/21 01:39:44;;;;;;;3.90;3.70;;;;;;;5.75;94.71;102491.69;6069407;23;20039;-67
2022/03/21 01:42:11;;;;;;;4.65;4.35;;;;;;;4.85;94.70;102331.41;6095406;23;20025;-65
2022/03/21 01:44:37;;;;;;;6.43;6.07;;;;;;;6.00;94.60;102517.69;6065630;23;20105;-65
2022/03/21 01:47:04;;;;;;;3.45;3.35;;;;;;;4.75;93.54;102322.75;6107638;23;20225;-66
2022/03/21 01:49:32;;;;;;;5.25;5.05;;;;;;;5.87;92.55;102519.41;6041289;23;20027;-66
2022/03/21 01:51:58;;;;;;;4.18;3.88;;;;;;;5.78;93.59;102501.22;6072129;23;20045;-66
2022/03/21 01:57:11;;;;;;;4.32;4.13;;;;;;;5.65;92.17;102484.75;6102054;23;20544;-67
2022/03/21 01:59:44;;;;;;;4.40;4.20;;;;;;;5.84;92.24;102511.63;6072750;23;20023;-67
2022/03/21 02:02:10;;;;;;;4.10;3.90;;;;;;;5.76;92.29;102505.56;6093737;23;20250;-65
2022/03/21 02:04:37;;;;;;;6.47;6.18;;;;;;;4.57;92.34;102304.53;6049071;23;20010;-65
2022/03/21 02:07:05;;;;;;;3.90;3.70;;;;;;;5.74;91.86;102504.72;6099077;23;20095;-65
2022/03/21 02:09:31;;;;;;;5.60;5.40;;;;;;;4.76;92.14;102365.22;6067428;23;20014;-66
2022/03/21 02:11:58;;;;;;;4.30;4.05;;;;;;;5.54;91.50;102495.19;6069371;23;20020;-66
2022/03/21 02:14:27;;;;;;;4.45;4.25;;;;;;;5.48;92.97;102484.78;6084866;23;20096;-65
2022/03/21 02:16:53;;;;;;;4.85;4.50;;;;;;;5.34;93.85;102460.53;6108931;23;20505;-67
2022/03/21 02:19:31;;;;;;;4.13;3.92;;;;;;;5.66;93.93;102542.94;6072023;23;20035;-67
2022/03/21 02:21:57;;;;;;;4.00;3.80;;;;;;;5.67;94.47;102505.59;6101703;23;20072;-66
2022/03/21 02:24:36;;;;;;;4.43;4.25;;;;;;;5.37;94.48;102457.91;6071142;23;20617;-67
2022/03/21 02:27:03;;;;;;;3.83;3.63;;;;;;;5.50;95.86;102510.84;6098545;23;20233;-65
2022/03/21 02:29:30;;;;;;;5.80;5.40;;;;;;;5.42;95.66;102497.81;6084846;23;20005;-66
2022/03/21 02:31:57;;;;;;;3.83;3.63;;;;;;;4.18;95.51;102299.38;6086155;23;20085;-67
2022/03/21 02:34:25;;;;;;;3.35;3.25;;;;;;;5.07;95.91;102466.63;6062008;23;20543;-65
2022/03/21 02:36:59;;;;;;;3.90;3.70;;;;;;;5.16;95.14;102490.06;6107667;23;20017;-65
2022/03/21 02:39:27;;;;;;;4.68;4.47;;;;;;;5.08;95.25;102495.25;6061421;23;20034;-65
2022/03/21 02:41:54;;;;;;;3.15;3.05;;;;;;;3.66;95.44;102282.88;6098127;23;20022;-65
2022/03/21 02:44:21;;;;;;;3.35;3.25;;;;;;;3.83;95.09;102288.09;6085700;23;20211;-65
2022/03/21 02:46:48;;;;;;;3.70;3.50;;;;;;;5.02;95.77;102492.66;6098959;23;20043;-65
2022/03/21 02:49:15;;;;;;;3.90;3.70;;;;;;;4.98;96.58;102498.72;6085238;23;20041;-66
2022/03/21 02:51:43;;;;;;;3.47;3.38;;;;;;;4.87;97.01;102503.94;6080889;23;20644;-65
2022/03/21 02:54:11;;;;;;;3.30;3.20;;;;;;;4.79;96.48;102500.44;6061273;23;20547;-64
2022/03/21 02:56:37;;;;;;;8.38;6.68;;;;;;;3.67;97.32;102324.41;6108194;23;20009;-65
2022/03/21 02:59:04;;;;;;;3.22;3.13;;;;;;;4.37;97.03;102464.00;6093735;23;20049;-65
2022/03/21 03:01:30;;;;;;;5.38;5.13;;;;;;;4.58;97.14;102499.56;6097402;23;20028;-66
2022/03/21 03:03:56;;;;;;;4.00;3.80;;;;;;;4.51;96.94;102502.13;6083155;23;20018;-65
2022/03/21 03:06:23;;;;;;;3.50;3.40;;;;;;;4.36;97.54;102500.38;6091860;23;20185;-66
2022/03/21 03:08:49;;;;;;;3.22;3.13;;;;;;;3.63;96.75;102384.09;6068443;23;20052;-65
2022/03/21 03:11:16;;;;;;;3.75;3.55;;;;;;;3.89;97.58;102430.94;6081893;23;20563;-65
2022/03/21 03:13:42;;;;;;;4.43;4.22;;;;;;;4.02;97.70;102450.03;6071535;23;20114;-66
2022/03/21 03:16:09;;;;;;;3.50;3.40;;;;;;;4.29;98.70;102496.91;6108700;23;20025;-65
2022/03/21 03:18:35;;;;;;;5.05;4.85;;;;;;;2.98;97.76;102282.63;6088972;23;20041;-65
2022/03/21 03:21:02;;;;;;;3.53;3.33;;;;;;;4.05;97.90;102482.09;6096458;23;20560;-65
2022/03/21 03:23:31;;;;;;;3.88;3.67;;;;;;;3.88;97.81;102458.63;6058632;23;20089;-65
2022/03/21 03:26:00;;;;;;;3.60;3.40;;;;;;;4.17;98.73;102510.72;6065616;23;20016;-65
2022/03/21 03:28:27;;;;;;;4.40;4.20;;;;;;;4.01;97.49;102485.56;6080245;23;20042;-66
2022/03/21 03:31:16;;;;;;;3.58;3.40;;;;;;;4.07;98.49;102506.34;6105106;23;20213;-65
2022/03/21 03:33:45;;;;;;;3.47;3.20;;;;;;;2.90;98.12;102320.63;6081396;23;20447;-65
2022/03/21 03:36:13;;;;;;;3.20;3.10;;;;;;;4.03;98.20;102512.41;6098331;23;20552;-66
2022/03/21 03:38:40;;;;;;;4.13;3.92;;;;;;;3.98;98.07;102509.75;6066868;23;20259;-65
2022/03/21 03:41:06;;;;;;;3.70;3.55;;;;;;;3.62;98.41;102455.94;6083263;23;20025;-65
2022/03/21 03:43:33;;;;;;;4.97;4.68;;;;;;;3.81;98.61;102511.44;6110721;23;20029;-65
2022/03/21 03:45:59;;;;;;;3.00;2.90;;;;;;;3.68;98.82;102483.66;6056302;23;20470;-65
2022/03/21 03:48:26;;;;;;;4.35;4.15;;;;;;;2.80;99.03;102341.28;6097677;23;20034;-65
2022/03/21 03:50:53;;;;;;;3.67;3.53;;;;;;;3.29;99.64;102405.59;6082568;23;20009;-65
2022/03/21 03:53:20;;;;;;;3.00;2.90;;;;;;;3.11;99.71;102359.66;6083220;23;20036;-66
2022/03/21 03:55:47;;;;;;;4.22;3.92;;;;;;;2.53;100.00;102251.28;6085722;23;20030;-65
2022/03/21 03:58:13;;;;;;;3.20;3.10;;;;;;;3.81;99.16;102454.31;6102684;23;20520;-65
2022/03/21 04:00:40;;;;;;;4.88;4.68;;;;;;;4.19;100.00;102511.59;6064950;23;20281;-67
2022/03/21 04:05:52;;;;;;;3.50;3.40;;;;;;;4.32;99.72;102509.03;6088257;23;20010;-66
2022/03/21 04:08:19;;;;;;;3.20;3.10;;;;;;;4.36;99.53;102510.78;6074353;23;20472;-66
2022/03/21 04:10:45;;;;;;;4.10;3.90;;;;;;;3.03;99.34;102277.47;6101780;23;20020;-67
2022/03/21 04:13:12;;;;;;;3.50;3.40;;;;;;;4.43;99.49;102515.16;6086251;23;20348;-67
2022/03/21 04:15:38;;;;;;;4.90;4.70;;;;;;;4.28;99.05;102482.16;6105755;23;20450;-66
2022/03/21 04:18:05;;;;;;;3.47;3.38;;;;;;;2.98;98.91;102267.94;6032381;23;20473;-66
2022/03/21 04:20:32;;;;;;;4.82;4.63;;;;;;;4.44;98.88;102516.88;6097267;23;20035;-67
2022/03/21 04:23:00;;;;;;;3.20;3.10;;;;;;;4.40;99.67;102523.78;6073397;23;20014;-67
2022/03/21 04:25:27;;;;;;;5.18;4.93;;;;;;;4.31;99.47;102521.16;6097976;23;20348;-66
2022/03/21 04:27:54;;;;;;;3.80;3.60;;;;;;;4.23;99.01;102528.06;6057813;23;20081;-66
2022/03/21 04:30:21;;;;;;;3.55;3.45;;;;;;;4.13;99.01;102527.16;6103145;23;20025;-66
2022/03/21 04:32:48;;;;;;;3.00;2.90;;;;;;;3.94;99.46;102508.03;6053495;23;20040;-65
2022/03/21 04:35:14;;;;;;;2.95;2.85;;;;;;;3.78;99.74;102495.81;6105152;23;20017;-66
2022/03/21 04:37:41;;;;;;;4.70;4.50;;;;;;;2.23;99.02;102245.91;6068344;23;20014;-66
2022/03/21 04:40:09;;;;;;;3.55;3.45;;;;;;;3.80;99.25;102536.50;6097713;23;20017;-65
2022/03/21 04:42:37;;;;;;;5.43;5.22;;;;;;;3.73;99.47;102536.50;6046922;23;20037;-66
2022/03/21 04:45:06;;;;;;;3.20;3.10;;;;;;;2.62;100.00;102355.88;6080988;23;20034;-66
2022/03/21 04:47:33;;;;;;;4.03;3.83;;;;;;;3.64;100.00;102529.50;6084037;23;20032;-66
2022/03/21 04:49:59;;;;;;;3.95;3.75;;;;;;;3.38;100.00;102505.97;6083270;23;20162;-66
2022/03/21 04:52:26;;;;;;;3.80;3.65;;;;;;;3.49;100.00;102556.25;6076809;23;20321;-67
2022/03/21 04:54:52;;;;;;;3.20;3.10;;;;;;;3.15;100.00;102495.44;6103721;23;20031;-66
2022/03/21 04:57:23;;;;;;;3.75;3.55;;;;;;;2.17;100.00;102350.31;6034792;23;20086;-65
2022/03/21 04:59:49;;;;;;;3.08;2.97;;;;;;;3.28;100.00;102553.47;6105094;23;20149;-66
2022/03/21 05:02:16;;;;;;;3.55;3.45;;;;;;;3.28;100.00;102548.28;6065408;23;20246;-65
2022/03/21 05:04:43;;;;;;;4.03;3.83;;;;;;;3.24;100.00;102551.72;6105422;23;20092;-66
2022/03/21 05:07:14;;;;;;;4.00;3.80;;;;;;;3.17;100.00;102554.25;6078867;23;20455;-66
2022/03/21 05:09:41;;;;;;;3.95;3.78;;;;;;;3.01;100.00;102539.44;6109431;23;20525;-66
2022/03/21 05:12:09;;;;;;;3.50;3.40;;;;;;;3.12;100.00;102555.06;6078289;23;20080;-65
2022/03/21 05:14:36;;;;;;;5.95;5.65;;;;;;;3.08;100.00;102558.50;6105553;23;20014;-65
2022/03/21 05:17:02;;;;;;;3.03;2.92;;;;;;;3.04;100.00;102567.97;6086064;23;20089;-66
2022/03/21 05:19:30;;;;;;;4.68;4.47;;;;;;;1.89;100.00;102365.59;6111054;23;20236;-66
2022/03/21 05:21:56;;;;;;;4.95;3.58;;;;;;;2.93;100.00;102548.88;6065923;23;20453;-65
2022/03/21 05:32:37;;;;;;;4.68;4.47;;;;;;;2.89;100.00;102588.59;6088701;23;20085;-66
2022/03/21 05:37:49;;;;;;;3.35;3.25;;;;;;;2.57;100.00;102529.50;6057272;23;20065;-66
2022/03/21 05:40:31;;;;;;;3.15;3.05;;;;;;;2.79;100.00;102578.09;6106194;23;20021;-65
2022/03/21 05:42:58;;;;;;;3.53;3.40;;;;;;;2.79;100.00;102575.53;6065550;23;20077;-66
2022/03/21 05:45:25;;;;;;;3.78;3.63;;;;;;;2.77;100.00;102572.03;6106104;23;20029;-66
2022/03/21 05:50:38;;;;;;;6.13;4.93;;;;;;;2.74;100.00;102573.72;6107939;23;20025;-66
2022/03/21 05:53:06;;;;;;;3.60;3.30;;;;;;;2.80;100.00;102584.16;6054912;23;20093;-66
2022/03/21 05:55:33;;;;;;;5.05;4.85;;;;;;;2.77;100.00;102582.41;6104667;23;20044;-66
2022/03/21 05:57:59;;;;;;;3.70;3.50;;;;;;;2.84;100.00;102590.25;6062196;23;20088;-66
2022/03/21 06:00:26;;;;;;;4.38;4.20;;;;;;;1.59;100.00;102403.19;6108524;23;20077;-66
2022/03/21 06:02:53;;;;;;;3.10;3.00;;;;;;;2.81;100.00;102604.06;6061424;23;20009;-66
2022/03/21 06:05:22;;;;;;;5.80;5.25;;;;;;;0.84;100.00;102272.06;6098643;23;20443;-66
2022/03/21 06:07:50;;;;;;;3.00;2.90;;;;;;;2.74;100.00;102586.69;6090861;23;21916;-66
2022/03/21 06:10:16;;;;;;;3.25;3.15;;;;;;;2.75;100.00;102570.28;6098451;23;20021;-65
2022/03/21 06:12:43;;;;;;;3.30;3.20;;;;;;;2.41;100.00;102507.72;6081993;23;20021;-66
2022/03/21 06:15:10;;;;;;;3.00;2.90;;;;;;;2.71;100.00;102552.97;6108783;23;20091;-66
2022/03/21 06:17:40;;;;;;;4.57;4.38;;;;;;;3.05;100.00;102594.75;6071364;23;20018;-66
2022/03/21 06:20:12;;;;;;;3.72;3.53;;;;;;;3.07;100.00;102595.69;6091637;23;20356;-65
2022/03/21 06:22:40;;;;;;;3.72;3.63;;;;;;;3.16;100.00;102614.78;6052357;23;20014;-66
2022/03/21 06:25:08;;;;;;;3.70;3.50;;;;;;;3.27;100.00;102607.09;6089837;23;20042;-66
2022/03/21 06:27:37;;;;;;;5.60;5.38;;;;;;;3.14;100.00;102584.50;6065593;23;20023;-66
2022/03/21 06:30:05;;;;;;;4.05;3.85;;;;;;;3.21;100.00;102565.53;6097323;23;20025;-66
2022/03/21 06:32:32;;;;;;;4.95;4.75;;;;;;;3.54;100.00;102619.44;6081050;23;20125;-67
2022/03/21 06:34:58;;;;;;;3.28;3.17;;;;;;;3.60;100.00;102624.66;6083379;23;20029;-66
2022/03/21 06:37:24;;;;;;;4.53;4.32;;;;;;;3.62;100.00;102606.50;6075151;23;20479;-65
2022/03/21 06:39:51;;;;;;;3.15;3.05;;;;;;;2.33;100.00;102398.81;6088915;23;20009;-65
2022/03/21 06:42:21;;;;;;;3.55;3.45;;;;;;;3.86;100.00;102626.59;6078348;23;20471;-66
2022/03/21 06:44:52;;;;;;;3.60;3.40;;;;;;;2.68;100.00;102415.53;6107707;23;20032;-65
2022/03/21 06:47:20;;;;;;;3.05;2.95;;;;;;;4.06;100.00;102631.06;6087142;23;20032;-65
2022/03/21 06:49:48;;;;;;;4.20;3.95;;;;;;;4.20;100.00;102625.06;6105482;23;20028;-66
2022/03/21 06:52:18;;;;;;;3.38;3.28;;;;;;;4.38;100.00;102655.47;6069334;23;20603;-66
2022/03/21 06:54:46;;;;;;;3.83;3.50;;;;;;;4.48;100.00;102639.94;6112555;23;20029;-65
2022/03/21 06:57:13;;;;;;;3.40;3.30;;;;;;;4.56;100.00;102630.44;6083142;23;20034;-66
2022/03/21 06:59:40;;;;;;;5.25;5.05;;;;;;;4.70;100.00;102646.09;6093451;23;20042;-65
2022/03/21 07:02:07;;;;;;;3.38;3.25;;;;;;;4.82;100.00;102627.91;6090379;23;20048;-66
2022/03/21 07:04:34;;;;;;;4.68;4.47;;;;;;;5.06;98.96;102634.91;6081156;23;20024;-65
2022/03/21 07:07:00;;;;;;;3.40;3.30;;;;;;;5.24;99.10;102638.44;6088119;23;20018;-67
2022/03/21 07:09:27;;;;;;;4.30;4.10;;;;;;;4.17;97.82;102419.78;6103755;23;20296;-66
2022/03/21 07:11:54;;;;;;;3.40;3.30;;;;;;;5.62;96.27;102643.66;6090036;23;20018;-66
2022/03/21 07:14:21;;;;;;;3.35;3.25;;;;;;;5.80;93.41;102630.59;6101724;23;20039;-65
2022/03/21 07:16:48;;;;;;;3.70;3.53;;;;;;;5.97;91.45;102646.25;6085366;23;20018;-66
2022/03/21 07:19:15;;;;;;;3.20;3.10;;;;;;;6.20;90.17;102640.13;6110971;23;20033;-66
2022/03/21 07:21:41;;;;;;;5.38;5.07;;;;;;;6.38;89.50;102645.28;6064298;23;20158;-66
2022/03/21 07:24:08;;;;;;;11.15;4.35;;;;;;;6.58;87.01;102647.81;6089860;23;20012;-66
2022/03/21 07:26:36;;;;;;;7.05;6.30;;;;;;;6.74;85.69;102652.97;6068592;23;20030;-66
2022/03/21 07:29:04;;;;;;;4.13;3.90;;;;;;;6.88;84.04;102639.84;6091917;23;20029;-66
2022/03/21 07:31:33;;;;;;;5.47;5.28;;;;;;;5.92;82.17;102449.91;6085348;23;20194;-65
2022/03/21 07:34:00;;;;;;;4.47;4.18;;;;;;;7.35;80.61;102652.59;6097756;23;20115;-65
2022/03/21 07:36:28;;;;;;;5.40;5.10;;;;;;;6.59;76.71;102518.22;6087761;23;20041;-66
2022/03/21 07:38:57;;;;;;;3.58;3.47;;;;;;;5.59;76.21;102305.06;6099235;23;20017;-65
2022/03/21 07:41:26;;;;;;;4.32;4.13;;;;;;;6.61;75.19;102448.66;6055969;23;20092;-65
2022/03/21 07:43:54;;;;;;;3.90;3.70;;;;;;;6.99;73.95;102500.53;6056352;23;20204;-65
2022/03/21 07:49:06;;;;;;;4.55;4.25;;;;;;;8.35;71.26;102654.25;6049900;23;20147;-65
2022/03/21 07:51:33;;;;;;;5.13;4.93;;;;;;;8.43;69.69;102661.22;6037174;23;20414;-65
2022/03/21 07:53:59;;;;;;;3.80;3.70;;;;;;;8.48;67.57;102655.03;6067063;23;20087;-65
2022/03/21 07:56:26;;;;;;;5.07;4.88;;;;;;;8.57;67.14;102648.81;6029415;23;20417;-65
2022/03/21 07:58:52;;;;;;;4.45;4.25;;;;;;;8.44;65.39;102610.59;6058455;23;20077;-64
2022/03/21 08:01:19;;;;;;;4.78;4.57;;;;;;;8.03;66.18;102513.41;6035282;23;20714;-66
2022/03/21 08:03:46;;;;;;;7.78;5.57;;;;;;;8.97;64.97;102654.38;6064766;23;20037;-68
2022/03/21 08:06:12;;;;;;;4.25;4.05;;;;;;;9.08;63.40;102653.38;6050928;23;20030;-66
2022/03/21 08:08:39;;;;;;;6.80;6.47;;;;;;;9.33;63.76;102666.97;6045448;23;20044;-67
2022/03/21 08:11:05;;;;;;;4.82;4.60;;;;;;;9.41;62.02;102675.59;6034037;23;20054;-68
2022/03/21 08:13:32;;;;;;;5.95;5.65;;;;;;;9.49;60.95;102676.31;6051636;23;20134;-67
2022/03/21 08:16:02;;;;;;;4.20;4.00;;;;;;;9.50;59.21;102666.69;6058414;23;20089;-67
2022/03/21 08:18:31;;;;;;;;;;;;;;;9.69;59.88;102675.16;6056750;23;20705;-66
2022/03/21 08:20:58;;;;;;;5.32;4.75;;;;;;;9.78;58.47;102686.34;6039215;23;19982;-66
2022/03/21 08:23:24;;;;;;;3.95;3.80;;;;;;;8.57;58.27;102468.25;6061015;23;20088;-67
2022/03/21 08:25:52;;;;;;;4.03;3.83;;;;;;;9.75;58.11;102633.94;6038856;23;20247;-66
2022/03/21 08:28:19;;;;;;;4.10;3.90;;;;;;;10.10;57.25;102677.03;6069877;23;20029;-66
2022/03/21 08:30:45;;;;;;;4.90;4.70;;;;;;;9.83;55.66;102633.81;6035710;23;20050;-66
2022/03/21 08:33:12;;;;;;;5.50;3.95;;;;;;;10.06;55.87;102664.84;6092888;23;20682;-65
2022/03/21 08:35:39;;;;;;;6.07;5.78;;;;;;;9.25;55.65;102498.56;6057793;23;20037;-67
2022/03/21 08:38:08;;;;;;;4.80;4.60;;;;;;;10.44;55.10;102672.94;6052207;23;20031;-66
2022/03/21 08:40:36;;;;;;;5.80;5.50;;;;;;;10.58;54.49;102697.13;6031391;23;20094;-66
2022/03/21 08:43:04;;;;;;;10.45;5.43;;;;;;;9.48;54.88;102514.75;6046930;23;20062;-68
2022/03/21 08:45:31;;;;;;;7.18;6.78;;;;;;;10.80;52.84;102686.19;6051511;23;20029;-65
2022/03/21 08:47:58;;;;;;;4.20;4.00;;;;;;;9.99;52.21;102538.19;6056265;23;20218;-65
2022/03/21 08:50:26;;;;;;;6.47;5.97;;;;;;;11.04;53.64;102677.78;6055299;23;20038;-67
2022/03/21 08:52:56;;;;;;;4.20;4.00;;;;;;;10.86;52.62;102638.78;6050342;23;20866;-65
2022/03/21 08:55:23;;;;;;;5.00;4.70;;;;;;;10.74;51.96;102619.78;6082110;23;20032;-67
2022/03/21 08:57:49;;;;;;;4.50;4.30;;;;;;;10.95;50.77;102614.94;6054777;23;20018;-66
2022/03/21 09:00:16;;;;;;;4.85;4.45;;;;;;;11.36;50.63;102681.44;6063641;23;20018;-67
2022/03/21 09:02:46;;;;;;;4.82;4.63;;;;;;;11.53;52.38;102675.78;6027213;23;20026;-65
2022/03/21 09:05:13;;;;;;;7.50;4.40;;;;;;;11.62;51.31;102670.28;6068312;23;20498;-65
2022/03/21 09:07:40;;;;;;;7.93;6.82;;;;;;;11.72;50.19;102665.66;6032689;23;20030;-65
2022/03/21 09:10:10;;;;;;;5.05;4.75;;;;;;;11.86;49.31;102670.56;6057278;23;20483;-68
2022/03/21 09:12:36;;;;;;;6.70;6.40;;;;;;;11.96;49.68;102690.50;6032534;23;20140;-65
2022/03/21 09:15:05;;;;;;;5.80;5.45;;;;;;;11.97;48.37;102672.06;6057376;23;20032;-67
2022/03/21 09:17:31;;;;;;;7.13;6.78;;;;;;;11.94;48.22;102660.72;6057451;23;20098;-66
2022/03/21 09:19:58;;;;;;;4.60;4.30;;;;;;;12.00;48.08;102657.09;6065770;23;20081;-66
2022/03/21 09:22:25;;;;;;;4.95;4.65;;;;;;;11.12;47.40;102505.03;6056684;23;20016;-67
2022/03/21 09:24:52;;;;;;;4.75;4.55;;;;;;;12.27;47.86;102666.88;6062278;23;20451;-67
2022/03/21 09:27:20;;;;;;;5.25;4.95;;;;;;;12.22;46.96;102662.63;6056860;23;20042;-66
2022/03/21 09:29:47;;;;;;;5.15;4.85;;;;;;;12.37;46.79;102672.75;6013937;23;20015;-67
2022/03/21 09:32:13;;;;;;;5.35;4.93;;;;;;;12.40;46.00;102677.06;6059916;23;20030;-66
2022/03/21 09:34:40;;;;;;;6.80;6.50;;;;;;;12.49;46.68;102677.66;6058690;23;20061;-66
2022/03/21 09:37:07;;;;;;;4.95;4.70;;;;;;;12.62;46.01;102686.06;6070219;23;20038;-67
2022/03/21 09:39:33;;;;;;;6.80;6.50;;;;;;;12.47;45.68;102655.78;6062222;23;20620;-65
2022/03/21 09:42:02;;;;;;;5.00;4.80;;;;;;;12.66;45.30;102669.25;6055256;23;20044;-66
2022/03/21 09:44:28;;;;;;;6.95;6.55;;;;;;;12.89;45.33;102665.06;6005265;23;20042;-67
2022/03/21 09:46:55;;;;;;;6.25;5.90;;;;;;;10.90;46.66;102301.59;6067755;23;20053;-66
2022/03/21 09:49:30;;;;;;;5.07;4.78;;;;;;;13.31;46.05;102655.00;6063115;23;20022;-66
2022/03/21 09:51:58;;;;;;;5.57;5.28;;;;;;;13.33;44.96;102631.19;6059020;23;20071;-67
2022/03/21 09:54:25;;;;;;;6.72;6.32;;;;;;;13.52;43.76;102648.16;6060955;23;20051;-67
2022/03/21 09:56:51;;;;;;;4.57;4.38;;;;;;;13.59;43.96;102658.50;6062100;23;20076;-66
2022/03/21 09:59:17;;;;;;;5.20;4.88;;;;;;;13.72;45.21;102658.03;6054238;23;20042;-66
2022/03/21 10:01:45;;;;;;;5.50;5.28;;;;;;;13.68;44.16;102640.56;6069610;23;20658;-65
2022/03/21 10:04:11;;;;;;;5.18;4.88;;;;;;;14.00;44.12;102653.59;6065911;23;20018;-66
2022/03/21 10:06:44;;;;;;;8.27;7.78;;;;;;;14.04;44.18;102650.78;6061073;23;20022;-66
2022/03/21 10:09:16;;;;;;;4.90;4.70;;;;;;;14.08;43.94;102651.53;6035310;23;20018;-66
2022/03/21 10:11:54;;;;;;;5.28;4.95;;;;;;;13.29;44.21;102501.25;6084617;23;20374;-66
2022/03/21 10:14:25;;;;;;;5.38;5.10;;;;;;;14.32;43.75;102668.28;6061249;23;20041;-68
2022/03/21 10:17:12;;;;;;;5.32;5.03;;;;;;;13.34;42.46;102457.09;6050888;23;20057;-66
2022/03/21 10:19:52;;;;;;;7.90;7.25;;;;;;;14.45;43.37;102639.59;6054087;23;20011;-65
2022/03/21 10:22:36;;;;;;;5.53;5.20;;;;;;;14.42;42.18;102623.91;6055227;23;20089;-66
2022/03/21 10:25:06;;;;;;;5.28;5.03;;;;;;;14.56;42.89;102637.47;6073290;23;20082;-66
2022/03/21 10:27:44;;;;;;;6.75;6.35;;;;;;;14.50;42.57;102613.91;6060031;23;20442;-66
2022/03/21 10:30:15;;;;;;;6.60;6.20;;;;;;;13.63;43.44;102454.31;6055687;23;20084;-65
2022/03/21 10:32:42;;;;;;;6.00;5.70;;;;;;;14.70;43.41;102627.22;6066571;23;20134;-66
2022/03/21 10:35:17;;;;;;;6.35;5.85;;;;;;;14.81;43.08;102636.53;6055712;23;20237;-66
2022/03/21 10:37:48;;;;;;;6.05;5.72;;;;;;;15.03;42.21;102620.66;6061781;23;20249;-66
2022/03/21 10:40:21;;;;;;;5.82;5.50;;;;;;;15.18;43.00;102624.50;6057871;23;20258;-66
2022/03/21 10:42:52;;;;;;;5.72;5.22;;;;;;;15.23;42.78;102623.34;6059390;23;20962;-66
2022/03/21 10:45:18;;;;;;;5.20;4.93;;;;;;;15.40;42.30;102619.19;6046390;23;20036;-66
2022/03/21 10:47:50;;;;;;;5.82;5.43;;;;;;;15.64;42.64;102626.06;6058798;23;20026;-66
2022/03/21 10:50:30;;;;;;;6.20;5.65;;;;;;;15.76;42.04;102627.38;6055011;23;20352;-66
2022/03/21 10:53:10;;;;;;;5.47;5.18;;;;;;;15.48;41.55;102606.47;6041637;23;20406;-66
2022/03/21 10:55:38;;;;;;;7.47;6.97;;;;;;;15.65;42.41;102626.94;6051979;23;20046;-66
2022/03/21 10:58:05;;;;;;;5.43;5.13;;;;;;;15.86;41.78;102612.81;6079671;23;20076;-67
2022/03/21 11:00:33;;;;;;;8.23;7.45;;;;;;;15.82;41.64;102599.78;6053249;23;20467;-67
2022/03/21 11:03:09;;;;;;;6.18;5.82;;;;;;;15.75;41.10;102615.03;6062372;23;20021;-66
2022/03/21 11:05:38;;;;;;;7.32;6.82;;;;;;;15.62;41.11;102608.53;6033900;23;20031;-66
2022/03/21 11:08:06;;;;;;;6.60;6.15;;;;;;;15.65;42.16;102611.03;6056681;23;20022;-66
2022/03/21 11:10:33;;;;;;;7.32;6.93;;;;;;;15.74;41.84;102613.34;6056471;23;20083;-67
2022/03/21 11:13:01;;;;;;;6.22;5.72;;;;;;;15.92;42.83;102601.94;6063575;23;20058;-66
2022/03/21 11:15:29;;;;;;;8.25;7.65;;;;;;;15.15;43.04;102413.88;6058692;23;20029;-67
2022/03/21 11:17:57;;;;;;;5.25;5.05;;;;;;;16.23;42.56;102570.56;6067665;23;20042;-66
2022/03/21 11:20:26;;;;;;;7.00;6.40;;;;;;;16.80;42.31;102618.22;6062449;23;20085;-67
2022/03/21 11:22:54;;;;;;;6.80;6.38;;;;;;;16.18;40.59;102557.53;6056334;23;20368;-66
2022/03/21 11:25:24;;;;;;;6.15;5.63;;;;;;;15.65;40.80;102452.25;6066203;23;20018;-67
2022/03/21 11:27:56;;;;;;;6.57;6.07;;;;;;;15.77;40.73;102451.72;6081828;23;20100;-65
2022/03/21 11:31:00;;;;;;;6.93;6.13;;;;;;;16.80;41.19;102604.97;6055782;23;20022;-67
2022/03/21 11:33:54;;;;;;;8.43;7.82;;;;;;;16.06;40.54;102476.84;6053221;23;20061;-67
2022/03/21 11:36:22;;;;;;;6.03;5.63;;;;;;;16.08;40.20;102458.25;6059746;23;20052;-67
2022/03/21 11:38:49;;;;;;;6.70;6.20;;;;;;;16.75;40.16;102590.16;6057520;23;20034;-66
2022/03/21 11:41:24;;;;;;;6.63;6.15;;;;;;;15.96;40.89;102435.84;6056174;23;20503;-66
2022/03/21 11:44:14;;;;;;;5.70;5.40;;;;;;;17.02;40.91;102596.88;6072017;23;20337;-65
2022/03/21 11:46:45;;;;;;;6.55;6.15;;;;;;;17.18;40.49;102615.53;6057631;23;20271;-66
2022/03/21 11:49:17;;;;;;;5.97;5.00;;;;;;;17.11;40.07;102605.25;6060897;23;20042;-66
2022/03/21 11:51:53;;;;;;;6.15;5.75;;;;;;;16.86;40.37;102600.28;6052780;23;20561;-67
2022/03/21 11:54:38;;;;;;;5.97;5.57;;;;;;;17.18;41.45;102595.19;6080985;23;20082;-66
2022/03/21 11:57:11;;;;;;;6.20;5.80;;;;;;;17.40;40.93;102596.75;6032626;23;20456;-67